Time;durP1;ratioP1;P1;durP2;ratioP2;P2;SDS_P1;SDS_P2;PMS_P1;PMS_P2;Temp;Humidity;BMP_temperature;BMP_pressure;BME280_temperature;BME280_humidity;BME280_pressure;Samples;Min_cycle;Max_cycle;Signal;HPM_P1;HPM_P2
2022/12/23 00:00:15;;;;;;;19.92;11.60;;;11.60;52.00;;;;;;4992798;28;20187;-55
2022/12/23 00:02:41;;;;;;;13.90;10.02;;;11.60;51.90;;;;;;4992220;28;20211;-55
2022/12/23 00:05:07;;;;;;;14.17;11.63;;;11.70;52.00;;;;;;4992822;28;20314;-55
2022/12/23 00:07:33;;;;;;;14.95;10.27;;;11.70;51.90;;;;;;4992790;28;20420;-55
2022/12/23 00:09:59;;;;;;;15.20;11.13;;;11.70;51.80;;;;;;4992615;28;20596;-55
2022/12/23 00:15:10;;;;;;;12.85;9.07;;;11.60;51.70;;;;;;4992867;28;20182;-55
2022/12/23 00:17:41;;;;;;;14.85;9.60;;;11.60;51.80;;;;;;4992522;28;20187;-55
2022/12/23 00:20:08;;;;;;;11.05;8.75;;;11.60;51.80;;;;;;4992546;28;20259;-55
2022/12/23 00:25:18;;;;;;;15.95;10.05;;;11.60;52.00;;;;;;4992460;28;20170;-55
2022/12/23 00:28:00;;;;;;;14.33;8.87;;;11.60;52.60;;;;;;4992338;28;20183;-54
2022/12/23 00:30:27;;;;;;;12.30;9.35;;;11.60;51.90;;;;;;4992546;28;20174;-56
2022/12/23 00:32:53;;;;;;;13.93;9.55;;;11.60;51.90;;;;;;4992008;28;20208;-55
2022/12/23 00:35:19;;;;;;;9.83;8.07;;;11.60;51.90;;;;;;4992334;28;20182;-55
2022/12/23 00:37:44;;;;;;;11.00;9.00;;;11.70;51.90;;;;;;5024201;23;20957;-53
2022/12/23 00:42:59;;;;;;;9.68;7.68;;;11.70;51.90;;;;;;5035296;28;20204;-53
2022/12/23 00:45:25;;;;;;;9.77;7.57;;;11.60;51.80;;;;;;5035488;28;20170;-53
2022/12/23 00:50:38;;;;;;;9.85;8.18;;;11.70;51.90;;;;;;5015649;28;20213;-52
2022/12/23 00:53:05;;;;;;;9.30;7.18;;;11.70;51.80;;;;;;5015431;28;20198;-52
2022/12/23 00:55:31;;;;;;;9.20;6.90;;;11.60;51.70;;;;;;5015443;28;20206;-53
2022/12/23 00:57:57;;;;;;;10.10;7.47;;;11.60;51.80;;;;;;5015450;28;20281;-52
2022/12/23 01:05:35;;;;;;;9.10;6.75;;;11.60;52.00;;;;;;5015453;28;20543;-52
2022/12/23 01:05:59;;;;;;;9.65;7.20;;;11.60;52.80;;;;;;5015176;28;20182;-53
2022/12/23 01:08:25;;;;;;;9.15;7.03;;;11.50;52.10;;;;;;5015265;28;20226;-53
2022/12/23 01:10:52;;;;;;;7.20;5.10;;;11.60;52.10;;;;;;5015213;28;20646;-52
2022/12/23 01:13:18;;;;;;;7.90;6.25;;;11.60;51.80;;;;;;5014970;28;20182;-52
2022/12/23 01:15:44;;;;;;;9.50;6.30;;;11.60;51.70;;;;;;5015146;28;20631;-53
2022/12/23 01:18:09;;;;;;;8.10;6.13;;;11.60;51.70;;;;;;5015028;28;20794;-53
2022/12/23 01:20:39;;;;;;;7.40;6.50;;;11.60;51.70;;;;;;5014975;28;20528;-53
2022/12/23 01:23:06;;;;;;;6.72;4.80;;;11.70;51.60;;;;;;5014706;28;20198;-52
2022/12/23 01:25:32;;;;;;;8.43;6.35;;;11.70;51.60;;;;;;5015001;28;20174;-52
2022/12/23 01:27:58;;;;;;;5.75;4.45;;;11.70;51.40;;;;;;5014778;28;20206;-53
2022/12/23 01:30:24;;;;;;;6.03;4.67;;;11.60;51.40;;;;;;5014885;28;20636;-53
2022/12/23 01:32:49;;;;;;;8.33;5.40;;;11.70;51.40;;;;;;5014611;28;20707;-54
2022/12/23 01:35:15;;;;;;;10.67;5.30;;;11.70;51.40;;;;;;5014772;28;20250;-52
2022/12/23 01:37:41;;;;;;;7.40;5.07;;;11.70;51.40;;;;;;5014554;28;20252;-52
2022/12/23 01:40:08;;;;;;;6.97;5.33;;;11.70;51.40;;;;;;5014764;28;20447;-53
2022/12/23 01:42:42;;;;;;;7.95;5.70;;;11.70;51.40;;;;;;5014412;28;20249;-53
2022/12/23 01:45:35;;;;;;;6.15;4.53;;;11.80;51.20;;;;;;5014664;28;20158;-53
2022/12/23 01:48:25;;;;;;;6.22;4.90;;;11.80;51.20;;;;;;5014653;28;20190;-53
2022/12/23 01:50:53;;;;;;;6.55;4.82;;;11.80;51.10;;;;;;5014509;28;20159;-53
2022/12/23 01:53:30;;;;;;;6.00;4.63;;;11.70;51.30;;;;;;5012875;28;20175;-52
2022/12/23 01:55:59;;;;;;;6.10;5.10;;;11.80;51.20;;;;;;5014605;28;20163;-53
2022/12/23 01:58:35;;;;;;;8.27;4.75;;;11.80;50.90;;;;;;5014552;28;20203;-53
2022/12/23 02:03:49;;;;;;;7.25;5.00;;;11.80;51.00;;;;;;5014272;28;20233;-53
2022/12/23 02:09:21;;;;;;;7.72;6.03;;;11.80;51.00;;;;;;5014447;28;20260;-53
2022/12/23 02:12:16;;;;;;;7.05;4.63;;;11.80;51.00;;;;;;5014262;28;20189;-53
2022/12/23 02:18:01;;;;;;;6.93;4.75;;;11.80;50.90;;;;;;5013958;28;20229;-53
2022/12/23 02:20:56;;;;;;;6.68;5.05;;;11.80;51.00;;;;;;5013926;28;20250;-53
2022/12/23 02:23:34;;;;;;;7.40;5.10;;;11.80;50.80;;;;;;5004767;28;20206;-52
2022/12/23 02:26:09;;;;;;;5.85;4.45;;;11.80;50.90;;;;;;5013792;28;20241;-53
2022/12/23 02:28:37;;;;;;;5.68;4.53;;;11.80;51.00;;;;;;5013954;28;20225;-53
2022/12/23 02:31:22;;;;;;;5.45;4.28;;;11.80;51.00;;;;;;5013717;28;20171;-52
2022/12/23 02:34:11;;;;;;;6.38;4.80;;;11.80;50.90;;;;;;5013375;28;20730;-52
2022/12/23 02:36:42;;;;;;;7.40;5.18;;;11.90;51.00;;;;;;5013170;28;20257;-53
2022/12/23 02:39:24;;;;;;;6.88;5.82;;;11.80;51.00;;;;;;5013626;28;20181;-53
2022/12/23 02:42:02;;;;;;;6.00;4.47;;;11.90;50.90;;;;;;5013222;28;20206;-52
2022/12/23 02:44:58;;;;;;;4.43;4.03;;;11.90;50.90;;;;;;5013531;28;20646;-53
2022/12/23 02:47:31;;;;;;;6.25;4.55;;;12.00;50.80;;;;;;5013649;28;20265;-53
2022/12/23 02:50:02;;;;;;;6.90;4.60;;;11.90;50.90;;;;;;5013391;28;20162;-52
2022/12/23 02:52:34;;;;;;;7.50;4.15;;;12.00;50.90;;;;;;5013347;28;20182;-53
2022/12/23 02:55:06;;;;;;;6.65;4.68;;;11.90;50.80;;;;;;5013523;28;20261;-53
2022/12/23 02:57:35;;;;;;;4.00;3.40;;;12.00;50.80;;;;;;5013057;28;20206;-53
2022/12/23 03:00:02;;;;;;;9.20;5.30;;;12.00;50.80;;;;;;5013241;28;20269;-53
2022/12/23 03:02:34;;;;;;;5.95;4.45;;;12.00;50.80;;;;;;5012794;28;20214;-52
2022/12/23 03:05:00;;;;;;;4.90;3.25;;;12.00;50.80;;;;;;5012902;28;20175;-52
2022/12/23 03:07:32;;;;;;;6.50;4.20;;;12.00;50.80;;;;;;5013138;28;20609;-53
2022/12/23 03:10:35;;;;;;;6.20;4.20;;;12.00;50.80;;;;;;5012981;28;20162;-53
2022/12/23 03:13:45;;;;;;;6.20;3.97;;;12.10;50.80;;;;;;5012680;28;20185;-53
2022/12/23 03:16:30;;;;;;;5.85;3.03;;;12.00;50.70;;;;;;5008912;28;20189;-52
2022/12/23 03:19:15;;;;;;;5.15;3.42;;;12.10;50.90;;;;;;5012915;28;20166;-53
2022/12/23 03:22:05;;;;;;;6.95;4.00;;;12.00;50.90;;;;;;5012769;28;20679;-52
2022/12/23 03:25:02;;;;;;;7.70;3.20;;;12.00;50.80;;;;;;5012729;28;20528;-52
2022/12/23 03:27:45;;;;;;;5.50;3.22;;;12.00;50.90;;;;;;5012667;28;20201;-53
2022/12/23 03:30:16;;;;;;;4.10;2.78;;;12.00;50.90;;;;;;5012790;28;20517;-53
2022/12/23 03:33:27;;;;;;;5.63;3.42;;;12.00;51.10;;;;;;5012444;28;20162;-53
2022/12/23 03:36:00;;;;;;;3.15;2.83;;;12.00;51.20;;;;;;5008555;28;20183;-53
2022/12/23 03:38:27;;;;;;;6.82;3.35;;;12.10;51.30;;;;;;5012454;28;20221;-52
2022/12/23 03:40:56;;;;;;;5.65;2.60;;;12.10;51.40;;;;;;5012514;28;20171;-53
2022/12/23 03:43:27;;;;;;;14.38;2.53;;;12.10;51.40;;;;;;5012190;28;20621;-53
2022/12/23 03:46:04;;;;;;;4.75;2.33;;;12.20;51.40;;;;;;5012459;28;20159;-53
2022/12/23 03:48:38;;;;;;;3.97;2.22;;;12.20;51.40;;;;;;5012337;28;20233;-53
2022/12/23 03:51:12;;;;;;;3.58;2.47;;;12.20;51.30;;;;;;5012454;28;20554;-53
2022/12/23 03:53:42;;;;;;;6.40;2.75;;;12.30;51.40;;;;;;5012239;28;20710;-53
2022/12/23 03:56:20;;;;;;;4.55;2.20;;;12.30;51.30;;;;;;5012369;28;20213;-53
2022/12/23 03:59:02;;;;;;;3.30;2.05;;;12.30;51.30;;;;;;5012258;28;20265;-53
2022/12/23 04:01:36;;;;;;;2.63;2.00;;;12.40;51.20;;;;;;5012208;28;20290;-52
2022/12/23 04:04:37;;;;;;;5.47;2.20;;;12.40;51.10;;;;;;5012046;28;20694;-52
2022/12/23 04:07:10;;;;;;;3.67;1.92;;;12.40;51.00;;;;;;4970287;28;20198;-53
2022/12/23 04:09:37;;;;;;;6.50;2.63;;;12.40;51.30;;;;;;5012219;28;20171;-53
2022/12/23 04:12:03;;;;;;;4.55;1.98;;;12.40;51.30;;;;;;5011904;28;20250;-53
2022/12/23 04:14:31;;;;;;;4.00;1.50;;;12.50;51.50;;;;;;5012187;28;20181;-52
2022/12/23 04:16:58;;;;;;;3.25;1.67;;;12.50;51.60;;;;;;5014950;28;20559;-53
2022/12/23 04:19:24;;;;;;;7.43;1.65;;;12.50;51.50;;;;;;5016232;28;20261;-53
2022/12/23 04:21:50;;;;;;;5.47;1.73;;;12.60;51.40;;;;;;5015918;28;20304;-52
2022/12/23 04:24:15;;;;;;;4.83;2.43;;;12.60;51.30;;;;;;5016087;28;20186;-53
2022/12/23 04:26:41;;;;;;;5.17;2.00;;;12.60;51.30;;;;;;5016043;28;20162;-52
2022/12/23 04:29:07;;;;;;;2.87;1.40;;;12.70;51.30;;;;;;5016026;28;20221;-52
2022/12/23 04:31:33;;;;;;;5.43;2.70;;;12.70;51.20;;;;;;5015954;28;20178;-53
2022/12/23 04:33:58;;;;;;;3.97;2.10;;;12.70;51.20;;;;;;5015716;28;20167;-53
2022/12/23 04:36:24;;;;;;;4.50;2.33;;;12.70;51.10;;;;;;5015871;28;20198;-52
2022/12/23 04:38:50;;;;;;;5.40;1.80;;;12.70;51.10;;;;;;5015656;28;20256;-53
2022/12/23 04:41:15;;;;;;;3.63;1.80;;;12.80;51.00;;;;;;5015739;28;20174;-53
2022/12/23 04:43:41;;;;;;;2.43;2.00;;;12.80;50.80;;;;;;5015547;28;20629;-53
2022/12/23 04:46:07;;;;;;;2.23;1.33;;;12.80;50.80;;;;;;5015630;28;20167;-52
2022/12/23 04:48:32;;;;;;;4.00;1.33;;;12.80;50.80;;;;;;5015578;28;20186;-54
2022/12/23 04:51:02;;;;;;;2.67;1.40;;;12.80;50.80;;;;;;5015556;28;20170;-52
2022/12/23 04:53:27;;;;;;;1.63;0.80;;;12.70;50.80;;;;;;5015384;28;20174;-52
2022/12/23 04:55:53;;;;;;;4.03;1.33;;;12.80;50.70;;;;;;5015528;28;20178;-53
2022/12/23 04:58:21;;;;;;;3.50;1.37;;;12.80;50.80;;;;;;5015504;28;20468;-52
2022/12/23 05:00:47;;;;;;;2.00;1.13;;;12.80;50.80;;;;;;5015481;28;20327;-52
2022/12/23 05:03:12;;;;;;;2.60;1.17;;;12.70;51.00;;;;;;5014986;28;20716;-53
2022/12/23 05:05:44;;;;;;;2.03;1.20;;;12.70;51.80;;;;;;5015549;28;20280;-53
2022/12/23 05:08:10;;;;;;;3.35;1.25;;;12.80;51.00;;;;;;5015244;28;20253;-52
2022/12/23 05:10:36;;;;;;;2.00;0.77;;;12.80;50.90;;;;;;5015335;28;20175;-53
2022/12/23 05:13:02;;;;;;;2.93;0.63;;;12.80;51.40;;;;;;5014987;28;20179;-53
2022/12/23 05:15:29;;;;;;;2.13;0.80;;;12.80;51.40;;;;;;5015113;28;20405;-52
2022/12/23 05:17:54;;;;;;;1.85;1.38;;;12.90;51.40;;;;;;5014961;28;20187;-53
2022/12/23 05:20:20;;;;;;;1.63;0.60;;;12.90;51.50;;;;;;5015090;28;20205;-53
2022/12/23 05:22:46;;;;;;;1.40;0.70;;;13.00;51.40;;;;;;5014784;28;20277;-53
2022/12/23 05:25:12;;;;;;;1.77;0.60;;;13.00;51.90;;;;;;5015056;28;20167;-52
2022/12/23 05:27:37;;;;;;;1.63;0.47;;;13.10;51.30;;;;;;5014587;28;20582;-53
2022/12/23 05:30:03;;;;;;;1.10;0.50;;;13.10;51.30;;;;;;5014898;28;20177;-52
2022/12/23 05:32:29;;;;;;;1.23;0.65;;;13.10;51.30;;;;;;4996894;28;20175;-53
2022/12/23 05:34:55;;;;;;;1.40;0.80;;;13.20;50.90;;;;;;5014817;28;20233;-53
2022/12/23 05:37:20;;;;;;;2.10;0.60;;;13.20;50.80;;;;;;5014237;28;20202;-53
2022/12/23 05:39:46;;;;;;;1.30;0.60;;;13.30;50.40;;;;;;5013585;28;20170;-53
2022/12/23 05:42:16;;;;;;;1.30;0.83;;;13.30;50.50;;;;;;5013343;28;20205;-53
2022/12/23 05:44:41;;;;;;;1.20;0.70;;;13.30;50.70;;;;;;5013472;28;20637;-52
2022/12/23 05:47:07;;;;;;;4.70;1.07;;;13.40;50.40;;;;;;5013341;28;20326;-53
2022/12/23 05:49:33;;;;;;;2.20;1.00;;;13.40;50.20;;;;;;5013522;28;20182;-52
2022/12/23 05:51:58;;;;;;;1.37;0.70;;;13.50;50.30;;;;;;5013163;28;20174;-53
2022/12/23 05:54:24;;;;;;;1.73;0.90;;;13.50;49.70;;;;;;5013266;28;20179;-53
2022/12/23 05:56:50;;;;;;;2.13;1.07;;;13.50;49.50;;;;;;5013252;28;20225;-53
2022/12/23 05:59:15;;;;;;;2.50;1.07;;;13.40;50.00;;;;;;5013347;28;20656;-53
2022/12/23 06:01:41;;;;;;;2.93;1.00;;;13.40;50.00;;;;;;5013128;28;20202;-53
2022/12/23 06:04:07;;;;;;;2.00;0.87;;;13.50;50.10;;;;;;5013072;28;20194;-53
2022/12/23 06:06:33;;;;;;;1.60;0.70;;;13.50;49.90;;;;;;5013210;28;20181;-53
2022/12/23 06:08:58;;;;;;;2.50;0.60;;;13.50;49.80;;;;;;5013173;28;20179;-53
2022/12/23 06:11:24;;;;;;;1.47;0.83;;;13.50;49.90;;;;;;5013106;28;20180;-52
2022/12/23 06:13:51;;;;;;;10.67;1.10;;;13.60;49.30;;;;;;5012930;28;20623;-53
2022/12/23 06:16:17;;;;;;;1.63;0.60;;;13.50;49.30;;;;;;5013328;28;20575;-53
2022/12/23 06:18:43;;;;;;;2.97;0.63;;;13.50;49.70;;;;;;5012983;28;20195;-53
2022/12/23 06:21:08;;;;;;;2.60;0.80;;;13.60;49.60;;;;;;5012962;28;20228;-53
2022/12/23 06:23:35;;;;;;;2.60;1.07;;;13.70;49.60;;;;;;5012817;28;20560;-52
2022/12/23 06:26:01;;;;;;;3.40;1.20;;;13.70;49.20;;;;;;5012913;28;20178;-53
2022/12/23 06:28:28;;;;;;;2.92;0.90;;;13.60;49.00;;;;;;5012748;28;20703;-54
2022/12/23 06:30:55;;;;;;;1.73;0.70;;;13.60;48.90;;;;;;5012745;28;20533;-53
2022/12/23 06:33:21;;;;;;;2.85;0.85;;;13.60;49.10;;;;;;5012520;28;20383;-53
2022/12/23 06:35:47;;;;;;;1.20;0.65;;;13.60;49.10;;;;;;5012787;28;20171;-54
2022/12/23 06:38:12;;;;;;;1.40;0.70;;;13.60;49.80;;;;;;4970044;28;1225289;-53
2022/12/23 06:40:39;;;;;;;1.00;0.43;;;13.60;49.10;;;;;;5013757;28;20193;-53
2022/12/23 06:43:05;;;;;;;1.60;0.60;;;13.60;49.10;;;;;;5013145;28;20287;-53
2022/12/23 06:45:30;;;;;;;1.70;0.67;;;13.70;49.20;;;;;;5013475;28;20254;-53
2022/12/23 06:47:56;;;;;;;1.20;0.50;;;13.80;49.00;;;;;;5013358;28;20426;-53
2022/12/23 06:50:22;;;;;;;6.73;1.07;;;13.80;49.00;;;;;;5013404;28;20174;-53
2022/12/23 06:52:48;;;;;;;1.80;0.77;;;13.70;49.30;;;;;;5013102;28;20694;-52
2022/12/23 06:55:14;;;;;;;2.40;0.80;;;13.60;49.80;;;;;;5013309;28;20226;-53
2022/12/23 06:57:39;;;;;;;1.95;0.80;;;13.60;50.20;;;;;;5013180;28;20216;-53
2022/12/23 07:00:06;;;;;;;1.30;0.60;;;13.50;50.50;;;;;;5013202;28;20656;-53
2022/12/23 07:02:32;;;;;;;1.30;0.70;;;13.50;50.70;;;;;;5012874;28;20237;-53
2022/12/23 07:04:58;;;;;;;5.53;1.10;;;13.50;50.60;;;;;;5013292;28;20175;-53
2022/12/23 07:07:24;;;;;;;2.80;1.03;;;13.60;50.50;;;;;;5013038;28;20437;-53
2022/12/23 07:09:49;;;;;;;1.70;0.90;;;13.60;50.50;;;;;;5013159;28;20649;-53
2022/12/23 07:12:15;;;;;;;2.53;0.97;;;13.70;50.50;;;;;;5012782;28;20624;-53
2022/12/23 07:14:41;;;;;;;2.07;0.60;;;13.70;50.40;;;;;;5012893;28;20651;-53
2022/12/23 07:17:06;;;;;;;3.93;1.37;;;13.70;50.40;;;;;;4995258;28;20194;-53
2022/12/23 07:19:33;;;;;;;4.77;1.40;;;13.70;50.40;;;;;;5012875;28;20167;-53
2022/12/23 07:21:58;;;;;;;3.22;1.05;;;13.70;50.40;;;;;;5012524;28;20205;-53
2022/12/23 07:24:24;;;;;;;3.00;1.23;;;13.70;50.40;;;;;;5012741;28;20166;-54
2022/12/23 07:26:50;;;;;;;1.90;1.00;;;13.70;50.60;;;;;;5012645;28;20174;-53
2022/12/23 07:29:16;;;;;;;1.75;0.90;;;13.60;50.60;;;;;;5012652;28;20801;-53
2022/12/23 07:31:42;;;;;;;1.57;1.00;;;13.60;50.70;;;;;;5012741;28;20179;-53
2022/12/23 07:34:08;;;;;;;2.93;1.30;;;13.60;50.70;;;;;;5012478;28;20370;-53
2022/12/23 07:36:34;;;;;;;2.05;1.00;;;13.60;50.70;;;;;;5012550;28;20210;-53
2022/12/23 07:39:00;;;;;;;2.35;0.88;;;13.50;50.80;;;;;;5012537;28;20683;-53
2022/12/23 07:41:25;;;;;;;1.80;1.17;;;13.50;50.90;;;;;;5012554;28;20182;-52
2022/12/23 07:43:51;;;;;;;2.07;1.10;;;13.50;50.80;;;;;;5012455;28;20175;-53
2022/12/23 07:46:17;;;;;;;2.60;1.07;;;13.40;50.90;;;;;;5012486;28;20249;-53
2022/12/23 07:48:43;;;;;;;2.37;1.30;;;13.40;51.10;;;;;;5012335;28;20194;-53
2022/12/23 07:51:08;;;;;;;2.40;1.60;;;13.40;51.20;;;;;;5012349;28;20175;-52
2022/12/23 07:53:34;;;;;;;1.93;1.20;;;13.40;51.20;;;;;;5012051;28;20448;-53
2022/12/23 07:56:00;;;;;;;1.80;0.93;;;13.40;51.30;;;;;;5012571;28;20640;-53
2022/12/23 07:58:26;;;;;;;1.60;1.10;;;13.40;51.30;;;;;;5012096;28;20425;-53
2022/12/23 08:00:59;;;;;;;1.63;1.10;;;13.40;51.40;;;;;;5012334;28;20659;-53
2022/12/23 08:03:24;;;;;;;1.48;0.90;;;13.40;51.40;;;;;;5012008;28;20186;-53
2022/12/23 08:05:59;;;;;;;3.90;1.43;;;13.40;51.50;;;;;;5012272;28;20170;-52
2022/12/23 08:08:25;;;;;;;1.88;1.67;;;13.40;51.50;;;;;;5012173;28;20190;-52
2022/12/23 08:10:55;;;;;;;2.33;1.30;;;13.30;51.60;;;;;;5012078;28;20290;-53
2022/12/23 08:13:20;;;;;;;2.05;1.30;;;13.30;51.60;;;;;;5012319;28;20163;-53
2022/12/23 08:15:46;;;;;;;2.57;1.40;;;13.30;51.70;;;;;;5012056;28;20547;-53
2022/12/23 08:18:12;;;;;;;2.00;1.60;;;13.30;51.70;;;;;;5012127;28;20723;-53
2022/12/23 08:20:37;;;;;;;2.43;1.67;;;13.30;51.70;;;;;;5012062;28;20174;-53
2022/12/23 08:23:03;;;;;;;2.40;1.47;;;13.30;51.70;;;;;;5011741;28;20576;-53
2022/12/23 08:25:29;;;;;;;2.70;1.47;;;13.30;52.00;;;;;;5011944;28;20194;-53
2022/12/23 08:27:55;;;;;;;4.23;1.90;;;13.30;52.00;;;;;;5011987;28;20946;-53
2022/12/23 08:30:20;;;;;;;2.03;1.60;;;13.30;52.10;;;;;;5012018;28;20171;-53
2022/12/23 08:32:46;;;;;;;1.93;1.17;;;13.30;52.10;;;;;;5011738;28;20173;-53
2022/12/23 08:35:12;;;;;;;2.90;1.40;;;13.30;52.10;;;;;;5011961;28;20175;-53
2022/12/23 08:37:37;;;;;;;2.03;1.40;;;13.30;52.20;;;;;;5011766;28;20209;-53
2022/12/23 08:40:03;;;;;;;3.37;1.97;;;13.30;52.20;;;;;;5011770;28;20195;-52
2022/12/23 08:42:29;;;;;;;3.40;1.55;;;13.30;52.20;;;;;;5011677;28;20603;-53
2022/12/23 08:44:55;;;;;;;2.63;1.43;;;13.40;52.30;;;;;;5011856;28;20174;-53
2022/12/23 08:47:20;;;;;;;2.43;1.47;;;13.40;52.30;;;;;;5011855;28;20233;-53
2022/12/23 08:49:47;;;;;;;2.20;1.17;;;13.50;52.30;;;;;;5011834;28;20182;-53
2022/12/23 08:52:13;;;;;;;4.25;2.25;;;13.50;52.40;;;;;;5011556;28;20513;-53
2022/12/23 08:54:39;;;;;;;2.67;1.50;;;13.50;52.50;;;;;;5011624;28;20201;-53
2022/12/23 08:57:04;;;;;;;1.60;0.97;;;13.60;52.50;;;;;;5011727;28;20187;-53
2022/12/23 08:59:30;;;;;;;1.87;1.40;;;13.70;52.50;;;;;;5011770;28;20168;-53
2022/12/23 09:01:58;;;;;;;1.70;1.03;;;13.70;52.50;;;;;;5012540;28;20199;-53
2022/12/23 09:04:24;;;;;;;2.10;1.20;;;13.70;52.40;;;;;;5015321;28;20579;-53
2022/12/23 09:06:49;;;;;;;3.90;1.77;;;13.80;52.40;;;;;;5015304;28;20167;-53
2022/12/23 09:09:15;;;;;;;2.90;1.80;;;13.80;52.50;;;;;;5015103;28;20167;-54
2022/12/23 09:11:41;;;;;;;2.90;1.40;;;13.80;52.40;;;;;;5015213;28;20171;-53
2022/12/23 09:14:08;;;;;;;3.55;1.40;;;13.80;52.30;;;;;;5014961;28;20251;-53
2022/12/23 09:16:35;;;;;;;2.05;1.33;;;13.80;52.30;;;;;;5015072;28;20266;-53
2022/12/23 09:19:01;;;;;;;1.63;1.10;;;12.90;51.80;;;;;;5015104;28;20225;-53
2022/12/23 09:21:27;;;;;;;2.77;1.20;;;13.90;52.20;;;;;;5014956;28;20183;-53
2022/12/23 09:23:52;;;;;;;5.60;1.37;;;13.90;52.30;;;;;;5014655;28;20410;-53
2022/12/23 09:26:25;;;;;;;2.23;1.30;;;13.90;52.40;;;;;;5014915;28;20456;-53
2022/12/23 09:28:51;;;;;;;3.60;1.20;;;13.90;52.30;;;;;;5014811;28;20270;-53
2022/12/23 09:31:17;;;;;;;2.00;1.00;;;13.80;52.10;;;;;;5014932;28;20633;-53
2022/12/23 09:33:46;;;;;;;1.98;1.10;;;13.90;52.50;;;;;;5014615;28;20174;-53
2022/12/23 09:36:12;;;;;;;1.60;1.00;;;13.90;52.30;;;;;;5014659;28;20171;-54
2022/12/23 09:38:38;;;;;;;3.40;0.90;;;13.90;51.90;;;;;;5014559;28;20259;-53
2022/12/23 09:41:24;;;;;;;2.70;1.10;;;14.00;52.00;;;;;;5014665;28;20178;-53
2022/12/23 09:43:57;;;;;;;2.25;1.20;;;14.00;51.60;;;;;;4974305;28;20254;-53
2022/12/23 09:46:28;;;;;;;2.88;1.00;;;14.10;51.90;;;;;;5014595;28;20772;-52
2022/12/23 09:49:02;;;;;;;1.88;1.20;;;14.20;51.70;;;;;;5014476;28;20273;-54
2022/12/23 09:51:29;;;;;;;2.85;1.23;;;14.20;51.40;;;;;;5014422;28;20640;-53
2022/12/23 09:54:21;;;;;;;1.98;1.17;;;14.20;51.30;;;;;;5014191;28;20583;-53
2022/12/23 09:56:50;;;;;;;2.15;1.10;;;14.20;51.30;;;;;;5014402;28;20175;-53
2022/12/23 09:59:19;;;;;;;2.58;1.20;;;14.20;51.30;;;;;;5014359;28;20662;-54
2022/12/23 10:01:56;;;;;;;6.30;1.27;;;14.30;51.40;;;;;;5014138;28;20606;-53
2022/12/23 10:04:22;;;;;;;1.50;0.98;;;14.30;51.00;;;;;;5014382;28;20930;-53
2022/12/23 10:07:05;;;;;;;2.30;1.07;;;14.40;51.00;;;;;;5014162;28;20253;-53
2022/12/23 10:09:36;;;;;;;1.75;1.08;;;14.40;51.10;;;;;;5014064;28;20194;-54
2022/12/23 10:12:27;;;;;;;1.73;1.00;;;14.50;50.90;;;;;;5013907;28;20170;-54
2022/12/23 10:14:56;;;;;;;3.58;1.15;;;14.50;49.70;;;;;;5013143;28;20175;-53
2022/12/23 10:17:34;;;;;;;1.95;0.98;;;14.60;50.60;;;;;;5014007;28;20686;-53
2022/12/23 10:20:03;;;;;;;3.22;1.60;;;14.60;50.60;;;;;;5013884;28;20221;-53
2022/12/23 10:22:42;;;;;;;4.20;1.17;;;14.60;50.40;;;;;;5013598;28;20234;-53
2022/12/23 10:25:18;;;;;;;3.55;1.50;;;14.60;50.30;;;;;;5013847;28;20171;-53
2022/12/23 10:27:44;;;;;;;4.32;1.75;;;14.60;50.20;;;;;;5013729;28;20816;-53
2022/12/23 10:30:26;;;;;;;2.27;1.70;;;14.60;50.30;;;;;;5013672;28;20182;-53
2022/12/23 10:33:27;;;;;;;1.35;0.90;;;14.60;50.20;;;;;;4995860;28;20418;-53
2022/12/23 10:36:34;;;;;;;1.65;0.95;;;14.60;50.20;;;;;;4973336;28;20189;-53
2022/12/23 10:39:20;;;;;;;1.80;1.20;;;14.60;50.30;;;;;;5013451;28;20648;-53
2022/12/23 10:41:59;;;;;;;2.30;1.35;;;14.60;49.70;;;;;;5013454;28;20584;-54
2022/12/23 10:44:36;;;;;;;2.50;1.50;;;14.60;49.80;;;;;;5013559;28;20242;-53
2022/12/23 10:47:17;;;;;;;1.88;1.10;;;14.60;49.80;;;;;;5013306;28;20198;-53
2022/12/23 10:50:08;;;;;;;1.60;0.80;;;14.60;49.50;;;;;;5013392;28;20257;-53
2022/12/23 10:52:38;;;;;;;2.47;1.60;;;14.70;49.40;;;;;;4982572;28;20215;-53
2022/12/23 10:55:05;;;;;;;2.00;1.20;;;14.70;48.90;;;;;;5013277;28;20174;-53
2022/12/23 10:57:31;;;;;;;1.70;1.00;;;14.70;49.40;;;;;;5013416;28;20198;-53
2022/12/23 10:59:57;;;;;;;2.10;1.40;;;14.70;49.20;;;;;;5013226;28;20257;-52
2022/12/23 11:02:32;;;;;;;3.17;1.33;;;14.60;49.30;;;;;;5012871;28;20612;-53
2022/12/23 11:04:57;;;;;;;2.00;1.35;;;14.60;49.30;;;;;;5013160;28;20505;-53
2022/12/23 11:07:26;;;;;;;2.60;1.10;;;14.70;49.30;;;;;;5012973;28;20198;-53
2022/12/23 11:10:02;;;;;;;1.92;1.52;;;14.80;49.10;;;;;;5013037;28;20171;-53
2022/12/23 11:12:40;;;;;;;1.58;1.10;;;14.80;48.40;;;;;;5012765;28;20240;-53
2022/12/23 11:15:29;;;;;;;2.25;1.13;;;14.70;48.40;;;;;;5013009;28;20195;-53
2022/12/23 11:18:10;;;;;;;1.75;1.30;;;14.60;48.90;;;;;;5012904;28;20205;-53
2022/12/23 11:20:37;;;;;;;2.15;1.20;;;14.70;48.60;;;;;;5012734;28;20178;-52
2022/12/23 11:23:05;;;;;;;1.90;1.30;;;14.70;49.00;;;;;;5012515;28;20282;-53
2022/12/23 11:25:40;;;;;;;3.55;1.52;;;14.80;48.40;;;;;;5012435;28;20174;-53
2022/12/23 11:28:18;;;;;;;2.08;1.65;;;14.80;48.50;;;;;;5012637;28;20190;-53
2022/12/23 11:31:13;;;;;;;2.03;1.40;;;14.70;48.30;;;;;;5012637;28;20158;-53
2022/12/23 11:33:40;;;;;;;1.95;1.27;;;14.70;48.70;;;;;;5012465;28;20238;-53
2022/12/23 11:46:36;;;;;;;2.40;1.60;;;15.00;48.10;;;;;;5012590;28;20201;-53
2022/12/23 11:49:30;;;;;;;2.30;1.60;;;15.00;47.70;;;;;;5012061;28;20162;-53
2022/12/23 11:52:09;;;;;;;2.63;1.55;;;15.00;48.00;;;;;;5012278;28;20202;-53
2022/12/23 11:54:36;;;;;;;2.08;1.35;;;15.00;48.10;;;;;;5012376;28;20170;-53
2022/12/23 11:57:06;;;;;;;3.25;1.50;;;15.20;48.30;;;;;;5012280;28;20198;-53
2022/12/23 11:59:47;;;;;;;2.55;1.27;;;15.20;47.50;;;;;;5012212;28;20175;-53
2022/12/23 12:02:32;;;;;;;1.60;1.13;;;15.30;47.10;;;;;;5012022;28;20225;-53
2022/12/23 12:05:27;;;;;;;2.25;1.50;;;15.40;46.60;;;;;;5012067;28;20584;-54
2022/12/23 12:07:59;;;;;;;2.60;1.38;;;15.40;46.80;;;;;;5012168;28;20190;-53
2022/12/23 12:10:30;;;;;;;2.30;1.33;;;15.30;47.30;;;;;;5012243;28;20234;-53
2022/12/23 12:13:00;;;;;;;2.33;1.60;;;15.30;47.30;;;;;;5011953;28;20193;-53
2022/12/23 12:15:50;;;;;;;2.20;1.20;;;15.30;46.50;;;;;;5012079;28;20162;-53
2022/12/23 12:18:18;;;;;;;2.00;1.50;;;15.40;47.10;;;;;;5012159;28;20187;-53
2022/12/23 12:20:45;;;;;;;2.63;1.40;;;15.40;46.90;;;;;;5012077;28;20175;-53
2022/12/23 12:23:20;;;;;;;2.00;1.13;;;15.40;46.80;;;;;;5011754;28;20244;-53
2022/12/23 12:25:54;;;;;;;1.98;1.20;;;15.40;46.90;;;;;;5012025;28;20167;-53
2022/12/23 12:28:23;;;;;;;2.17;0.85;;;15.50;46.30;;;;;;5011964;28;20182;-53
2022/12/23 12:30:59;;;;;;;1.98;1.65;;;15.50;46.70;;;;;;4994334;28;20657;-53
2022/12/23 12:33:34;;;;;;;1.83;1.20;;;15.60;46.90;;;;;;5011852;28;20167;-53
2022/12/23 12:36:31;;;;;;;2.20;1.23;;;15.60;46.10;;;;;;5011836;28;20166;-54
2022/12/23 12:38:59;;;;;;;2.15;1.00;;;15.70;46.50;;;;;;5015591;28;20725;-54
2022/12/23 12:41:36;;;;;;;5.40;1.42;;;15.80;46.70;;;;;;5015738;28;20281;-53
2022/12/23 12:44:29;;;;;;;4.70;1.52;;;15.80;45.90;;;;;;5015580;28;20167;-54
2022/12/23 12:47:03;;;;;;;2.78;1.42;;;15.90;45.10;;;;;;5015604;28;20195;-53
2022/12/23 12:49:52;;;;;;;2.05;1.00;;;15.90;46.20;;;;;;5015740;28;20159;-54
2022/12/23 12:52:24;;;;;;;2.08;1.23;;;15.90;45.60;;;;;;5015361;28;20156;-53
2022/12/23 12:55:12;;;;;;;1.45;1.00;;;15.80;45.60;;;;;;5015410;28;20175;-53
2022/12/23 12:57:39;;;;;;;2.63;1.30;;;15.70;45.80;;;;;;5015475;28;20194;-53
2022/12/23 13:00:13;;;;;;;2.20;1.30;;;15.60;45.90;;;;;;5015455;28;20178;-53
2022/12/23 13:02:38;;;;;;;2.08;1.20;;;15.60;45.40;;;;;;5015102;28;20195;-53
2022/12/23 13:05:22;;;;;;;3.73;1.33;;;15.60;45.90;;;;;;5015251;28;20178;-53
2022/12/23 13:07:57;;;;;;;2.85;1.23;;;15.60;46.10;;;;;;5015252;28;20191;-53
2022/12/23 13:10:32;;;;;;;1.90;1.10;;;15.60;46.30;;;;;;5015194;28;20628;-53
2022/12/23 13:13:31;;;;;;;1.80;1.40;;;15.60;45.90;;;;;;5015018;28;20217;-54
2022/12/23 13:16:06;;;;;;;2.47;1.48;;;15.60;46.10;;;;;;5015086;28;20739;-53
2022/12/23 13:18:41;;;;;;;2.13;1.23;;;15.60;45.80;;;;;;5015043;28;20198;-53
2022/12/23 13:21:29;;;;;;;2.95;1.70;;;15.60;46.10;;;;;;5015113;28;20670;-54
2022/12/23 13:24:22;;;;;;;2.53;1.40;;;15.60;46.20;;;;;;5014790;28;20643;-54
2022/12/23 13:27:16;;;;;;;1.83;1.45;;;15.50;46.00;;;;;;5014816;28;20167;-54
2022/12/23 13:29:48;;;;;;;4.00;1.60;;;15.50;46.10;;;;;;5014898;28;20183;-52
2022/12/23 13:32:20;;;;;;;2.50;1.27;;;15.40;46.30;;;;;;5014597;28;20175;-52
2022/12/23 13:35:17;;;;;;;3.00;1.50;;;15.50;46.50;;;;;;5014713;28;20155;-53
2022/12/23 13:38:08;;;;;;;3.30;2.50;;;15.50;46.40;;;;;;4977363;28;20297;-52
2022/12/23 13:40:48;;;;;;;4.75;2.90;;;15.50;46.30;;;;;;5014641;28;20250;-52